Time;durP1;ratioP1;P1;durP2;ratioP2;P2;SDS_P1;SDS_P2;PMS_P1;PMS_P2;Temp;Humidity;BMP_temperature;BMP_pressure;BME280_temperature;BME280_humidity;BME280_pressure;Samples;Min_cycle;Max_cycle;Signal;HPM_P1;HPM_P2
2023/01/19 00:06:11;;;;;;;0.20;0.10;;;6.90;99.90;;;;;;21164914;28;20390;-72
2023/01/19 00:16:17;;;;;;;0.20;0.10;;;6.60;99.90;;;;;;21164246;28;20418;-71
2023/01/19 00:26:22;;;;;;;0.20;0.10;;;6.20;99.90;;;;;;21163266;28;20446;-71
2023/01/19 00:36:26;;;;;;;0.20;0.10;;;6.00;99.90;;;;;;21161620;28;20398;-72
2023/01/19 00:46:32;;;;;;;0.20;0.10;;;6.00;99.90;;;;;;21160438;28;20386;-72
2023/01/19 00:56:36;;;;;;;0.20;0.10;;;5.80;99.90;;;;;;21161416;28;20455;-71
2023/01/19 01:06:41;;;;;;;0.20;0.10;;;6.00;99.90;;;;;;21160264;28;20432;-71
2023/01/19 01:16:45;;;;;;;0.20;0.10;;;5.90;99.90;;;;;;21157223;28;20465;-72
2023/01/19 01:26:50;;;;;;;0.20;0.10;;;5.70;99.90;;;;;;21158477;28;20461;-72
2023/01/19 01:36:55;;;;;;;0.20;0.00;;;5.70;99.90;;;;;;21111964;28;20664;-72
2023/01/19 01:47:00;;;;;;;0.20;0.10;;;5.00;99.90;;;;;;21119108;28;20403;-72
2023/01/19 01:57:11;;;;;;;0.20;0.10;;;4.80;99.90;;;;;;21156328;28;20410;-72
2023/01/19 02:17:43;;;;;;;0.20;0.10;;;4.60;99.90;;;;;;21154314;28;20398;-71
2023/01/19 02:27:49;;;;;;;0.20;0.10;;;4.40;99.90;;;;;;21153045;28;20484;-71
2023/01/19 02:37:54;;;;;;;0.20;0.10;;;4.50;99.90;;;;;;21097311;28;20759;-71
2023/01/19 02:47:59;;;;;;;0.20;0.10;;;5.40;99.90;;;;;;21122905;28;20440;-70
2023/01/19 02:58:11;;;;;;;0.20;0.10;;;5.80;99.90;;;;;;21150786;28;20421;-71
2023/01/19 03:08:23;;;;;;;0.20;0.10;;;6.00;99.90;;;;;;21149620;28;20387;-72
2023/01/19 03:18:29;;;;;;;0.20;0.10;;;6.20;99.90;;;;;;21130837;28;20469;-72
2023/01/19 03:28:39;;;;;;;0.20;0.10;;;6.10;99.90;;;;;;21147241;28;20461;-72
2023/01/19 03:38:46;;;;;;;0.20;0.10;;;6.00;99.90;;;;;;21084456;28;20402;-71
2023/01/19 03:48:52;;;;;;;0.20;0.10;;;5.90;99.90;;;;;;21126155;28;20455;-73
2023/01/19 03:58:56;;;;;;;0.20;0.10;;;6.00;99.90;;;;;;21128051;28;20735;-72
2023/01/19 04:09:01;;;;;;;0.20;0.10;;;5.80;99.90;;;;;;21146089;28;20405;-72
2023/01/19 04:19:05;;;;;;;0.20;0.10;;;5.70;99.90;;;;;;21145463;28;20425;-72
2023/01/19 04:29:10;;;;;;;0.20;0.10;;;5.70;99.90;;;;;;21144278;28;20390;-71
2023/01/19 04:39:14;;;;;;;0.20;0.00;;;5.70;99.90;;;;;;21143098;28;20873;-72
2023/01/19 04:49:20;;;;;;;0.20;0.10;;;5.50;99.90;;;;;;21155508;28;20912;-71
2023/01/19 04:59:23;;;;;;;0.20;0.10;;;5.70;99.90;;;;;;21158127;28;20402;-72
2023/01/19 05:09:29;;;;;;;0.20;0.00;;;5.50;99.90;;;;;;21158821;27;20422;-72
2023/01/19 05:19:33;;;;;;;0.20;0.10;;;5.60;99.90;;;;;;21140533;27;20412;-71
2023/01/19 05:29:38;;;;;;;0.20;0.10;;;5.50;99.90;;;;;;21072043;28;20411;-72
2023/01/19 05:39:42;;;;;;;0.20;0.10;;;5.50;99.90;;;;;;21069106;28;20495;-71
2023/01/19 05:49:47;;;;;;;0.20;0.10;;;5.40;99.90;;;;;;21054387;28;20400;-71
2023/01/19 05:59:51;;;;;;;0.20;0.10;;;5.40;99.90;;;;;;21067393;28;20744;-71
2023/01/19 06:09:57;;;;;;;0.20;0.10;;;5.30;99.90;;;;;;21050142;28;20495;-70
2023/01/19 06:20:00;;;;;;;0.20;0.10;;;5.20;99.90;;;;;;21067297;28;20951;-71
2023/01/19 06:30:07;;;;;;;0.20;0.10;;;5.20;99.90;;;;;;21081732;28;20453;-72
2023/01/19 06:40:11;;;;;;;0.20;0.10;;;5.10;99.90;;;;;;21064461;28;20405;-69
2023/01/19 06:50:18;;;;;;;0.20;0.10;;;4.90;99.90;;;;;;21137359;28;20858;-72
2023/01/19 07:00:23;;;;;;;0.20;0.10;;;4.90;99.90;;;;;;21143223;28;20445;-70
2023/01/19 07:10:28;;;;;;;0.20;0.10;;;4.70;99.90;;;;;;21145167;28;20395;-74
2023/01/19 07:20:52;;;;;;;0.20;0.10;;;4.60;99.90;;;;;;21143894;28;20510;-71
2023/01/19 07:30:57;;;;;;;0.20;0.10;;;4.70;99.90;;;;;;21145247;28;20394;-72
2023/01/19 07:41:01;;;;;;;0.20;0.10;;;4.80;99.90;;;;;;21146165;28;20791;-74
2023/01/19 07:51:10;;;;;;;0.20;0.10;;;5.00;99.90;;;;;;21097737;28;20416;-72
2023/01/19 08:01:16;;;;;;;0.20;0.10;;;5.20;99.90;;;;;;21059119;28;20431;-79
2023/01/19 08:11:21;;;;;;;0.20;0.10;;;5.30;99.90;;;;;;21057578;28;20404;-73
2023/01/19 08:21:25;;;;;;;0.20;0.10;;;5.50;99.90;;;;;;21048409;28;20408;-71
2023/01/19 08:31:30;;;;;;;0.20;0.10;;;6.00;99.90;;;;;;21074893;28;20404;-74
2023/01/19 08:41:34;;;;;;;0.20;0.10;;;6.20;99.90;;;;;;21077873;28;20433;-71
2023/01/19 08:51:39;;;;;;;0.20;0.10;;;6.40;99.90;;;;;;21155550;28;20474;-70
2023/01/19 09:01:43;;;;;;;0.20;0.10;;;6.30;99.90;;;;;;21157388;28;20441;-71
2023/01/19 09:11:48;;;;;;;0.20;0.10;;;6.50;99.90;;;;;;21138073;28;20444;-71
2023/01/19 09:21:54;;;;;;;0.20;0.10;;;6.80;99.90;;;;;;21153329;28;21246;-71
2023/01/19 09:31:59;;;;;;;0.20;0.10;;;7.00;99.90;;;;;;21152077;28;20468;-71
2023/01/19 09:42:13;;;;;;;0.20;0.10;;;7.20;99.90;;;;;;21113523;28;20526;-69
2023/01/19 09:52:19;;;;;;;0.20;0.10;;;7.60;99.90;;;;;;21149539;28;20409;-71
2023/01/19 10:02:35;;;;;;;0.20;0.10;;;7.90;99.90;;;;;;21082424;28;20408;-70
2023/01/19 10:13:29;;;;;;;0.20;0.10;;;8.20;99.90;;;;;;21113158;28;20850;-70
2023/01/19 10:23:39;;;;;;;0.20;0.10;;;8.60;99.90;;;;;;21084076;28;20809;-72
2023/01/19 10:33:44;;;;;;;0.20;0.10;;;8.80;99.90;;;;;;21123939;28;20392;-70
2023/01/19 10:43:49;;;;;;;0.20;0.10;;;9.00;99.90;;;;;;21084309;28;20452;-73
2023/01/19 10:53:57;;;;;;;0.20;0.10;;;9.30;99.90;;;;;;21147799;28;20402;-71
2023/01/19 11:04:18;;;;;;;0.20;0.10;;;9.70;99.90;;;;;;21127794;28;20407;-71
2023/01/19 11:14:25;;;;;;;0.20;0.10;;;9.90;99.90;;;;;;21144383;28;20429;-70
2023/01/19 11:24:30;;;;;;;0.20;0.10;;;10.00;99.90;;;;;;21146763;28;20406;-71
2023/01/19 11:34:38;;;;;;;0.20;0.10;;;10.50;99.90;;;;;;21113194;28;20432;-70
2023/01/19 11:44:47;;;;;;;0.20;0.10;;;11.10;99.90;;;;;;21087612;28;20939;-69
2023/01/19 11:54:59;;;;;;;0.20;0.10;;;11.20;99.90;;;;;;21144033;28;20399;-70
2023/01/19 12:05:09;;;;;;;0.20;0.10;;;11.60;99.90;;;;;;21141193;28;20925;-70
2023/01/19 12:15:23;;;;;;;0.20;0.10;;;11.80;99.90;;;;;;21141683;28;20390;-71
2023/01/19 12:25:38;;;;;;;0.20;0.00;;;12.20;99.90;;;;;;21141283;28;20494;-69
2023/01/19 12:35:58;;;;;;;0.20;0.00;;;12.20;99.90;;;;;;21102742;28;20401;-73
2023/01/19 12:46:02;;;;;;;0.20;0.10;;;13.00;99.90;;;;;;21100027;28;20436;-69
2023/01/19 12:56:09;;;;;;;0.20;0.10;;;12.80;99.90;;;;;;21124303;28;20387;-72
2023/01/19 13:06:13;;;;;;;0.20;0.10;;;12.20;99.90;;;;;;21146874;28;20406;-69
2023/01/19 13:16:57;;;;;;;0.20;0.10;;;12.00;99.90;;;;;;21156046;28;20403;-71
2023/01/19 13:27:02;;;;;;;0.20;0.10;;;12.10;99.90;;;;;;21153283;28;20405;-70
2023/01/19 13:37:18;;;;;;;0.20;0.10;;;12.60;99.90;;;;;;21081034;28;20476;-71
2023/01/19 13:47:23;;;;;;;0.20;0.10;;;12.60;99.90;;;;;;21119822;28;20426;-72
2023/01/19 13:57:31;;;;;;;0.20;0.10;;;12.80;99.90;;;;;;21152995;28;20411;-71
2023/01/19 14:07:35;;;;;;;0.20;0.10;;;13.20;99.90;;;;;;21153352;28;20472;-71
2023/01/19 14:17:41;;;;;;;0.20;0.10;;;13.70;99.90;;;;;;21150644;28;20408;-72
2023/01/19 14:27:44;;;;;;;0.20;0.10;;;14.10;99.90;;;;;;21149925;28;20406;-70
2023/01/19 14:37:51;;;;;;;0.20;0.10;;;14.20;99.90;;;;;;21090961;28;20457;-71
2023/01/19 14:47:58;;;;;;;0.20;0.10;;;14.30;99.90;;;;;;21118238;28;20406;-71
2023/01/19 14:58:10;;;;;;;0.20;0.10;;;14.70;99.90;;;;;;21146496;28;20405;-69
2023/01/19 15:08:17;;;;;;;0.20;0.10;;;13.60;99.90;;;;;;21146432;28;20421;-71
2023/01/19 15:18:25;;;;;;;0.20;0.10;;;13.60;99.90;;;;;;21144665;28;20414;-70
2023/01/19 15:28:47;;;;;;;0.20;0.10;;;13.70;99.90;;;;;;21109254;28;20855;-71
2023/01/19 15:38:52;;;;;;;0.20;0.10;;;14.60;99.90;;;;;;21059836;28;20720;-68
2023/01/19 15:48:57;;;;;;;0.20;0.10;;;13.50;99.90;;;;;;21126381;28;20410;-69
2023/01/19 15:59:02;;;;;;;0.20;0.10;;;13.20;99.90;;;;;;21143430;28;20399;-70
2023/01/19 16:09:06;;;;;;;0.20;0.00;;;13.70;99.90;;;;;;21142600;28;20427;-70
2023/01/19 16:19:14;;;;;;;0.20;0.10;;;12.90;99.90;;;;;;21141088;28;20426;-69
2023/01/19 16:29:19;;;;;;;0.20;0.10;;;12.00;99.90;;;;;;21141769;28;20436;-70
2023/01/19 16:39:24;;;;;;;0.20;0.10;;;11.50;99.90;;;;;;21073757;28;20771;-70
2023/01/19 16:49:29;;;;;;;0.20;0.10;;;11.20;99.90;;;;;;21138947;28;20968;-70
2023/01/19 16:59:34;;;;;;;0.20;0.10;;;10.90;99.90;;;;;;21156463;28;20436;-71
2023/01/19 17:09:38;;;;;;;0.20;0.10;;;10.80;99.90;;;;;;21155843;28;20407;-73
2023/01/19 17:19:44;;;;;;;0.20;0.10;;;10.70;99.90;;;;;;21154474;28;20468;-70
2023/01/19 17:29:49;;;;;;;0.20;0.10;;;10.80;99.90;;;;;;21133771;28;20414;-71
2023/01/19 17:39:55;;;;;;;0.20;0.10;;;10.80;99.90;;;;;;21076435;28;20435;-72
2023/01/19 17:49:58;;;;;;;0.20;0.10;;;10.60;99.90;;;;;;21097347;28;20394;-73
2023/01/19 18:00:04;;;;;;;0.20;0.10;;;10.70;99.90;;;;;;21152591;28;20417;-72
2023/01/19 18:10:10;;;;;;;0.20;0.10;;;11.00;99.90;;;;;;21140211;27;20446;-70
2023/01/19 18:20:16;;;;;;;0.20;0.10;;;11.00;99.90;;;;;;21142278;27;20412;-72
2023/01/19 18:30:21;;;;;;;0.20;0.10;;;11.00;99.90;;;;;;21150436;27;20756;-73
2023/01/19 18:40:26;;;;;;;0.20;0.10;;;11.10;99.90;;;;;;21068841;28;20408;-73
2023/01/19 18:50:30;;;;;;;0.20;0.10;;;10.80;99.90;;;;;;21139836;28;20465;-69
2023/01/19 19:00:35;;;;;;;0.20;0.10;;;10.90;99.90;;;;;;21142817;28;20402;-70
2023/01/19 19:10:41;;;;;;;0.20;0.10;;;10.90;99.90;;;;;;21123766;28;21015;-71
2023/01/19 19:20:46;;;;;;;0.20;0.10;;;10.70;99.90;;;;;;21138268;28;20418;-70
2023/01/19 19:31:01;;;;;;;0.20;0.10;;;10.60;99.90;;;;;;21139484;28;20402;-70
2023/01/19 19:41:07;;;;;;;0.20;0.10;;;10.50;99.90;;;;;;21055578;28;20409;-71
2023/01/19 19:51:13;;;;;;;0.20;0.10;;;10.40;99.90;;;;;;21138809;28;20386;-75
2023/01/19 20:01:27;;;;;;;0.20;0.10;;;10.20;99.90;;;;;;21110661;28;20422;-75
2023/01/19 20:11:35;;;;;;;0.20;0.10;;;10.00;99.90;;;;;;21139828;28;20395;-75
2023/01/19 20:21:41;;;;;;;0.20;0.10;;;10.00;99.90;;;;;;21152896;28;20467;-73
2023/01/19 20:31:47;;;;;;;0.20;0.10;;;10.10;99.90;;;;;;21148229;28;20473;-72
2023/01/19 20:41:53;;;;;;;0.20;0.00;;;10.00;99.90;;;;;;21072394;28;20458;-70
2023/01/19 20:51:56;;;;;;;0.20;0.10;;;9.90;99.90;;;;;;21152945;28;20402;-71
2023/01/19 21:02:02;;;;;;;0.20;0.10;;;10.00;99.90;;;;;;21106694;28;20405;-71
2023/01/19 21:12:08;;;;;;;0.20;0.10;;;9.90;99.90;;;;;;21067418;28;20400;-71
2023/01/19 21:22:13;;;;;;;0.20;0.10;;;9.80;99.90;;;;;;21064939;28;20435;-69
2023/01/19 21:32:17;;;;;;;0.20;0.10;;;9.80;99.90;;;;;;21065607;28;20402;-72
2023/01/19 21:42:22;;;;;;;0.20;0.08;;;9.80;99.90;;;;;;21089460;27;20424;-72
2023/01/19 21:52:27;;;;;;;0.20;0.10;;;9.70;99.90;;;;;;21153322;27;20406;-71
2023/01/19 22:02:32;;;;;;;0.20;0.10;;;9.70;99.90;;;;;;21133591;28;20550;-72
2023/01/19 22:12:41;;;;;;;0.20;0.10;;;9.80;99.90;;;;;;21153166;28;20980;-70
2023/01/19 22:22:46;;;;;;;0.20;0.10;;;9.80;99.90;;;;;;21138877;27;20418;-70
2023/01/19 22:32:51;;;;;;;0.20;0.10;;;9.90;99.90;;;;;;21137423;27;20432;-72
2023/01/19 22:42:57;;;;;;;0.20;0.10;;;10.00;99.90;;;;;;21064956;28;20876;-72
2023/01/19 22:53:00;;;;;;;0.20;0.10;;;10.20;99.90;;;;;;21148369;28;20405;-72
2023/01/19 23:03:06;;;;;;;0.20;0.10;;;10.40;99.90;;;;;;21149729;28;20422;-73
2023/01/19 23:13:09;;;;;;;0.20;0.10;;;10.40;99.90;;;;;;21147432;28;20402;-71
2023/01/19 23:23:15;;;;;;;0.20;0.05;;;10.30;99.90;;;;;;21146016;28;20762;-72
2023/01/19 23:33:19;;;;;;;0.20;0.10;;;10.30;99.90;;;;;;21127954;28;20729;-72
2023/01/19 23:43:24;;;;;;;0.20;0.10;;;10.20;99.90;;;;;;21078001;28;20406;-71
2023/01/19 23:53:27;;;;;;;0.20;0.10;;;10.20;99.90;;;;;;21144252;28;20800;-72
